sensor_id;sensor_type;location;lat;lon;timestamp;P1;durP1;ratioP1;P2;durP2;ratioP2
3249;SDS011;1637;42.020;23.992;2024-03-17T00:01:00;29.40;;;13.13;;
3249;SDS011;1637;42.020;23.992;2024-03-17T00:03:26;23.17;;;12.63;;
3249;SDS011;1637;42.020;23.992;2024-03-17T00:05:56;16.47;;;9.03;;
3249;SDS011;1637;42.020;23.992;2024-03-17T00:08:22;10.70;;;7.43;;
3249;SDS011;1637;42.020;23.992;2024-03-17T00:10:50;10.87;;;7.50;;
3249;SDS011;1637;42.020;23.992;2024-03-17T00:13:16;14.57;;;9.17;;
3249;SDS011;1637;42.020;23.992;2024-03-17T00:15:43;13.13;;;8.60;;
3249;SDS011;1637;42.020;23.992;2024-03-17T00:18:09;14.87;;;7.43;;
3249;SDS011;1637;42.020;23.992;2024-03-17T00:20:36;11.93;;;7.80;;
3249;SDS011;1637;42.020;23.992;2024-03-17T00:23:05;17.40;;;8.80;;
3249;SDS011;1637;42.020;23.992;2024-03-17T00:25:33;14.10;;;7.50;;
3249;SDS011;1637;42.020;23.992;2024-03-17T00:27:59;12.90;;;7.63;;
3249;SDS011;1637;42.020;23.992;2024-03-17T00:30:26;21.13;;;9.00;;
3249;SDS011;1637;42.020;23.992;2024-03-17T00:32:51;19.73;;;9.00;;
3249;SDS011;1637;42.020;23.992;2024-03-17T00:35:18;21.63;;;11.20;;
3249;SDS011;1637;42.020;23.992;2024-03-17T00:37:46;16.87;;;10.40;;
3249;SDS011;1637;42.020;23.992;2024-03-17T00:40:14;30.00;;;10.80;;
3249;SDS011;1637;42.020;23.992;2024-03-17T00:42:41;14.97;;;8.90;;
3249;SDS011;1637;42.020;23.992;2024-03-17T00:45:10;13.90;;;8.30;;
3249;SDS011;1637;42.020;23.992;2024-03-17T00:47:36;25.40;;;12.80;;
3249;SDS011;1637;42.020;23.992;2024-03-17T00:50:04;11.60;;;7.63;;
3249;SDS011;1637;42.020;23.992;2024-03-17T00:52:31;12.33;;;7.57;;
3249;SDS011;1637;42.020;23.992;2024-03-17T00:54:58;18.20;;;8.37;;
3249;SDS011;1637;42.020;23.992;2024-03-17T00:57:26;14.63;;;7.03;;
3249;SDS011;1637;42.020;23.992;2024-03-17T00:59:52;13.83;;;6.77;;
3249;SDS011;1637;42.020;23.992;2024-03-17T01:02:18;11.60;;;7.57;;
3249;SDS011;1637;42.020;23.992;2024-03-17T01:04:46;10.27;;;5.67;;
3249;SDS011;1637;42.020;23.992;2024-03-17T01:07:12;9.00;;;6.40;;
3249;SDS011;1637;42.020;23.992;2024-03-17T01:09:39;13.63;;;8.50;;
3249;SDS011;1637;42.020;23.992;2024-03-17T01:12:05;12.60;;;7.70;;
3249;SDS011;1637;42.020;23.992;2024-03-17T01:14:33;22.20;;;11.97;;
3249;SDS011;1637;42.020;23.992;2024-03-17T01:16:59;15.83;;;9.60;;
3249;SDS011;1637;42.020;23.992;2024-03-17T01:19:29;13.57;;;8.63;;
3249;SDS011;1637;42.020;23.992;2024-03-17T01:21:56;14.17;;;9.00;;
3249;SDS011;1637;42.020;23.992;2024-03-17T01:24:22;17.97;;;9.50;;
3249;SDS011;1637;42.020;23.992;2024-03-17T01:26:49;31.57;;;11.20;;
3249;SDS011;1637;42.020;23.992;2024-03-17T01:29:18;18.70;;;10.97;;
3249;SDS011;1637;42.020;23.992;2024-03-17T01:31:45;16.03;;;8.50;;
3249;SDS011;1637;42.020;23.992;2024-03-17T01:34:12;22.60;;;11.67;;
3249;SDS011;1637;42.020;23.992;2024-03-17T01:36:37;21.07;;;8.47;;
3249;SDS011;1637;42.020;23.992;2024-03-17T01:39:04;17.13;;;8.63;;
3249;SDS011;1637;42.020;23.992;2024-03-17T01:41:30;11.00;;;7.03;;
3249;SDS011;1637;42.020;23.992;2024-03-17T01:43:58;11.23;;;7.03;;
3249;SDS011;1637;42.020;23.992;2024-03-17T01:46:24;12.40;;;8.43;;
3249;SDS011;1637;42.020;23.992;2024-03-17T01:48:52;10.53;;;6.83;;
3249;SDS011;1637;42.020;23.992;2024-03-17T01:51:18;14.80;;;8.00;;
3249;SDS011;1637;42.020;23.992;2024-03-17T01:53:45;15.63;;;9.03;;
3249;SDS011;1637;42.020;23.992;2024-03-17T01:56:11;13.83;;;9.30;;
3249;SDS011;1637;42.020;23.992;2024-03-17T01:58:40;22.57;;;10.13;;
3249;SDS011;1637;42.020;23.992;2024-03-17T02:01:09;19.87;;;10.03;;
3249;SDS011;1637;42.020;23.992;2024-03-17T02:03:36;14.73;;;9.03;;
3249;SDS011;1637;42.020;23.992;2024-03-17T02:06:03;13.87;;;7.03;;
3249;SDS011;1637;42.020;23.992;2024-03-17T02:08:32;13.63;;;8.23;;
3249;SDS011;1637;42.020;23.992;2024-03-17T02:11:14;12.37;;;7.00;;
3249;SDS011;1637;42.020;23.992;2024-03-17T02:13:51;14.63;;;8.40;;
3249;SDS011;1637;42.020;23.992;2024-03-17T02:16:18;14.70;;;7.37;;
3249;SDS011;1637;42.020;23.992;2024-03-17T02:18:45;15.57;;;9.10;;
3249;SDS011;1637;42.020;23.992;2024-03-17T02:21:13;32.53;;;15.40;;
3249;SDS011;1637;42.020;23.992;2024-03-17T02:23:41;23.10;;;10.83;;
3249;SDS011;1637;42.020;23.992;2024-03-17T02:26:08;14.83;;;8.63;;
3249;SDS011;1637;42.020;23.992;2024-03-17T02:28:40;18.07;;;8.67;;
3249;SDS011;1637;42.020;23.992;2024-03-17T02:31:08;12.10;;;7.63;;
3249;SDS011;1637;42.020;23.992;2024-03-17T02:33:35;11.67;;;7.30;;
3249;SDS011;1637;42.020;23.992;2024-03-17T02:36:02;11.20;;;7.53;;
3249;SDS011;1637;42.020;23.992;2024-03-17T02:38:29;15.53;;;8.30;;
3249;SDS011;1637;42.020;23.992;2024-03-17T02:41:15;12.40;;;7.90;;
3249;SDS011;1637;42.020;23.992;2024-03-17T02:43:42;11.77;;;6.97;;
3249;SDS011;1637;42.020;23.992;2024-03-17T02:46:10;11.47;;;7.13;;
3249;SDS011;1637;42.020;23.992;2024-03-17T02:48:38;13.53;;;9.20;;
3249;SDS011;1637;42.020;23.992;2024-03-17T02:51:09;16.13;;;9.27;;
3249;SDS011;1637;42.020;23.992;2024-03-17T02:53:37;13.40;;;8.33;;
3249;SDS011;1637;42.020;23.992;2024-03-17T02:56:04;16.30;;;8.60;;
3249;SDS011;1637;42.020;23.992;2024-03-17T02:58:33;10.97;;;7.20;;
3249;SDS011;1637;42.020;23.992;2024-03-17T03:01:01;10.83;;;6.67;;
3249;SDS011;1637;42.020;23.992;2024-03-17T03:03:27;11.10;;;7.47;;
3249;SDS011;1637;42.020;23.992;2024-03-17T03:05:54;15.43;;;8.33;;
3249;SDS011;1637;42.020;23.992;2024-03-17T03:08:22;17.00;;;7.60;;
3249;SDS011;1637;42.020;23.992;2024-03-17T03:10:49;12.70;;;6.77;;
3249;SDS011;1637;42.020;23.992;2024-03-17T03:13:16;13.90;;;7.03;;
3249;SDS011;1637;42.020;23.992;2024-03-17T03:15:44;13.33;;;7.40;;
3249;SDS011;1637;42.020;23.992;2024-03-17T03:18:12;11.03;;;6.90;;
3249;SDS011;1637;42.020;23.992;2024-03-17T03:20:39;14.93;;;8.03;;
3249;SDS011;1637;42.020;23.992;2024-03-17T03:23:06;17.50;;;9.70;;
3249;SDS011;1637;42.020;23.992;2024-03-17T03:25:33;18.37;;;10.67;;
3249;SDS011;1637;42.020;23.992;2024-03-17T03:28:00;21.73;;;9.80;;
3249;SDS011;1637;42.020;23.992;2024-03-17T03:30:28;24.23;;;11.53;;
3249;SDS011;1637;42.020;23.992;2024-03-17T03:32:56;18.70;;;11.67;;
3249;SDS011;1637;42.020;23.992;2024-03-17T03:35:23;24.93;;;11.93;;
3249;SDS011;1637;42.020;23.992;2024-03-17T03:37:52;28.67;;;15.53;;
3249;SDS011;1637;42.020;23.992;2024-03-17T03:40:18;22.17;;;13.60;;
3249;SDS011;1637;42.020;23.992;2024-03-17T03:42:46;26.70;;;12.67;;
3249;SDS011;1637;42.020;23.992;2024-03-17T03:45:13;24.30;;;13.17;;
3249;SDS011;1637;42.020;23.992;2024-03-17T03:47:39;28.80;;;13.53;;
3249;SDS011;1637;42.020;23.992;2024-03-17T03:50:09;30.23;;;15.67;;
3249;SDS011;1637;42.020;23.992;2024-03-17T03:52:36;24.07;;;15.10;;
3249;SDS011;1637;42.020;23.992;2024-03-17T03:55:03;27.93;;;14.60;;
3249;SDS011;1637;42.020;23.992;2024-03-17T03:57:32;27.23;;;14.87;;
3249;SDS011;1637;42.020;23.992;2024-03-17T03:59:59;28.70;;;14.00;;
3249;SDS011;1637;42.020;23.992;2024-03-17T04:02:30;43.10;;;20.10;;
3249;SDS011;1637;42.020;23.992;2024-03-17T04:04:59;34.27;;;15.50;;
3249;SDS011;1637;42.020;23.992;2024-03-17T04:07:27;50.53;;;20.23;;
3249;SDS011;1637;42.020;23.992;2024-03-17T04:09:54;39.60;;;19.17;;
3249;SDS011;1637;42.020;23.992;2024-03-17T04:12:21;29.13;;;15.07;;
3249;SDS011;1637;42.020;23.992;2024-03-17T04:14:48;29.30;;;15.40;;
3249;SDS011;1637;42.020;23.992;2024-03-17T04:17:17;27.47;;;15.77;;
3249;SDS011;1637;42.020;23.992;2024-03-17T04:19:46;28.03;;;15.23;;
3249;SDS011;1637;42.020;23.992;2024-03-17T04:22:13;32.93;;;13.73;;
3249;SDS011;1637;42.020;23.992;2024-03-17T04:24:41;27.60;;;15.83;;
3249;SDS011;1637;42.020;23.992;2024-03-17T04:27:08;25.00;;;14.83;;
3249;SDS011;1637;42.020;23.992;2024-03-17T04:29:35;30.93;;;15.47;;
3249;SDS011;1637;42.020;23.992;2024-03-17T04:32:02;27.77;;;14.83;;
3249;SDS011;1637;42.020;23.992;2024-03-17T04:34:30;31.10;;;14.97;;
3249;SDS011;1637;42.020;23.992;2024-03-17T04:36:57;43.33;;;20.67;;
3249;SDS011;1637;42.020;23.992;2024-03-17T04:39:24;36.43;;;16.67;;
3249;SDS011;1637;42.020;23.992;2024-03-17T04:41:53;30.90;;;14.83;;
3249;SDS011;1637;42.020;23.992;2024-03-17T04:44:19;29.07;;;15.10;;
3249;SDS011;1637;42.020;23.992;2024-03-17T04:46:46;37.03;;;17.13;;
3249;SDS011;1637;42.020;23.992;2024-03-17T04:49:13;40.70;;;17.00;;
3249;SDS011;1637;42.020;23.992;2024-03-17T04:51:40;29.93;;;15.97;;
3249;SDS011;1637;42.020;23.992;2024-03-17T04:54:07;29.10;;;14.27;;
3249;SDS011;1637;42.020;23.992;2024-03-17T04:56:33;29.33;;;15.13;;
3249;SDS011;1637;42.020;23.992;2024-03-17T04:59:01;28.20;;;15.37;;
3249;SDS011;1637;42.020;23.992;2024-03-17T05:01:27;30.07;;;15.20;;
3249;SDS011;1637;42.020;23.992;2024-03-17T05:03:56;28.60;;;13.90;;
3249;SDS011;1637;42.020;23.992;2024-03-17T05:06:23;27.17;;;14.30;;
3249;SDS011;1637;42.020;23.992;2024-03-17T05:08:50;26.40;;;13.40;;
3249;SDS011;1637;42.020;23.992;2024-03-17T05:11:17;23.60;;;12.23;;
3249;SDS011;1637;42.020;23.992;2024-03-17T05:13:45;36.83;;;17.93;;
3249;SDS011;1637;42.020;23.992;2024-03-17T05:16:13;27.67;;;15.80;;
3249;SDS011;1637;42.020;23.992;2024-03-17T05:18:40;31.70;;;15.00;;
3249;SDS011;1637;42.020;23.992;2024-03-17T05:21:07;26.60;;;15.43;;
3249;SDS011;1637;42.020;23.992;2024-03-17T05:23:34;30.27;;;14.87;;
3249;SDS011;1637;42.020;23.992;2024-03-17T05:26:02;44.70;;;23.30;;
3249;SDS011;1637;42.020;23.992;2024-03-17T05:28:30;60.57;;;27.70;;
3249;SDS011;1637;42.020;23.992;2024-03-17T05:30:57;53.40;;;28.87;;
3249;SDS011;1637;42.020;23.992;2024-03-17T05:33:26;41.17;;;23.30;;
3249;SDS011;1637;42.020;23.992;2024-03-17T05:35:53;51.37;;;25.43;;
3249;SDS011;1637;42.020;23.992;2024-03-17T05:38:21;40.90;;;20.60;;
3249;SDS011;1637;42.020;23.992;2024-03-17T05:40:52;52.03;;;19.67;;
3249;SDS011;1637;42.020;23.992;2024-03-17T05:43:20;41.60;;;22.03;;
3249;SDS011;1637;42.020;23.992;2024-03-17T05:45:50;46.60;;;23.00;;
3249;SDS011;1637;42.020;23.992;2024-03-17T05:48:17;34.50;;;17.47;;
3249;SDS011;1637;42.020;23.992;2024-03-17T05:50:46;29.80;;;16.47;;
3249;SDS011;1637;42.020;23.992;2024-03-17T05:53:12;36.70;;;21.70;;
3249;SDS011;1637;42.020;23.992;2024-03-17T05:55:39;53.70;;;25.20;;
3249;SDS011;1637;42.020;23.992;2024-03-17T05:58:08;57.00;;;26.20;;
3249;SDS011;1637;42.020;23.992;2024-03-17T06:00:35;70.30;;;30.47;;
3249;SDS011;1637;42.020;23.992;2024-03-17T06:03:02;108.13;;;39.13;;
3249;SDS011;1637;42.020;23.992;2024-03-17T06:05:31;66.50;;;31.10;;
3249;SDS011;1637;42.020;23.992;2024-03-17T06:08:00;68.97;;;31.10;;
3249;SDS011;1637;42.020;23.992;2024-03-17T06:10:29;98.90;;;34.80;;
3249;SDS011;1637;42.020;23.992;2024-03-17T06:12:56;93.73;;;40.23;;
3249;SDS011;1637;42.020;23.992;2024-03-17T06:15:23;91.57;;;40.73;;
3249;SDS011;1637;42.020;23.992;2024-03-17T06:17:50;110.43;;;47.07;;
3249;SDS011;1637;42.020;23.992;2024-03-17T06:20:18;99.87;;;43.63;;
3249;SDS011;1637;42.020;23.992;2024-03-17T06:22:44;43.97;;;21.10;;
3249;SDS011;1637;42.020;23.992;2024-03-17T06:25:13;91.37;;;39.03;;
3249;SDS011;1637;42.020;23.992;2024-03-17T06:27:40;72.07;;;31.60;;
3249;SDS011;1637;42.020;23.992;2024-03-17T06:30:09;60.00;;;30.37;;
3249;SDS011;1637;42.020;23.992;2024-03-17T06:32:39;77.63;;;32.30;;
3249;SDS011;1637;42.020;23.992;2024-03-17T06:35:06;61.20;;;29.23;;
3249;SDS011;1637;42.020;23.992;2024-03-17T06:37:33;81.30;;;38.53;;
3249;SDS011;1637;42.020;23.992;2024-03-17T06:40:01;63.63;;;31.07;;
3249;SDS011;1637;42.020;23.992;2024-03-17T06:42:29;54.30;;;27.50;;
3249;SDS011;1637;42.020;23.992;2024-03-17T06:44:56;62.40;;;31.17;;
3249;SDS011;1637;42.020;23.992;2024-03-17T06:47:23;61.50;;;27.87;;
3249;SDS011;1637;42.020;23.992;2024-03-17T06:49:50;50.80;;;27.10;;
3249;SDS011;1637;42.020;23.992;2024-03-17T06:52:17;66.23;;;26.10;;
3249;SDS011;1637;42.020;23.992;2024-03-17T06:54:44;42.40;;;21.83;;
3249;SDS011;1637;42.020;23.992;2024-03-17T06:57:15;47.87;;;20.60;;
3249;SDS011;1637;42.020;23.992;2024-03-17T06:59:43;35.80;;;18.40;;
3249;SDS011;1637;42.020;23.992;2024-03-17T07:02:11;36.70;;;18.63;;
3249;SDS011;1637;42.020;23.992;2024-03-17T07:04:42;31.17;;;18.17;;
3249;SDS011;1637;42.020;23.992;2024-03-17T07:07:09;36.23;;;19.17;;
3249;SDS011;1637;42.020;23.992;2024-03-17T07:09:38;34.67;;;17.27;;
3249;SDS011;1637;42.020;23.992;2024-03-17T07:12:05;30.83;;;17.50;;
3249;SDS011;1637;42.020;23.992;2024-03-17T07:14:32;25.53;;;12.83;;
3249;SDS011;1637;42.020;23.992;2024-03-17T07:17:00;16.53;;;10.40;;
3249;SDS011;1637;42.020;23.992;2024-03-17T07:19:27;16.67;;;10.30;;
3249;SDS011;1637;42.020;23.992;2024-03-17T07:21:56;16.53;;;10.77;;
3249;SDS011;1637;42.020;23.992;2024-03-17T07:24:22;18.87;;;11.03;;
3249;SDS011;1637;42.020;23.992;2024-03-17T07:26:49;15.53;;;10.30;;
3249;SDS011;1637;42.020;23.992;2024-03-17T07:29:16;20.77;;;11.80;;
3249;SDS011;1637;42.020;23.992;2024-03-17T07:31:44;19.77;;;12.80;;
3249;SDS011;1637;42.020;23.992;2024-03-17T07:34:12;22.03;;;12.80;;
3249;SDS011;1637;42.020;23.992;2024-03-17T07:36:39;17.53;;;11.87;;
3249;SDS011;1637;42.020;23.992;2024-03-17T07:39:06;21.83;;;10.73;;
3249;SDS011;1637;42.020;23.992;2024-03-17T07:41:33;18.53;;;11.70;;
3249;SDS011;1637;42.020;23.992;2024-03-17T07:44:00;13.60;;;9.00;;
3249;SDS011;1637;42.020;23.992;2024-03-17T07:46:26;21.27;;;10.87;;
3249;SDS011;1637;42.020;23.992;2024-03-17T07:48:53;12.40;;;9.80;;
3249;SDS011;1637;42.020;23.992;2024-03-17T07:51:22;16.87;;;9.20;;
3249;SDS011;1637;42.020;23.992;2024-03-17T07:53:48;14.90;;;10.27;;
3249;SDS011;1637;42.020;23.992;2024-03-17T07:56:17;23.03;;;14.70;;
3249;SDS011;1637;42.020;23.992;2024-03-17T07:58:44;16.30;;;10.10;;
3249;SDS011;1637;42.020;23.992;2024-03-17T08:01:11;14.77;;;9.23;;
3249;SDS011;1637;42.020;23.992;2024-03-17T08:03:39;15.70;;;9.37;;
3249;SDS011;1637;42.020;23.992;2024-03-17T08:06:07;13.77;;;9.40;;
3249;SDS011;1637;42.020;23.992;2024-03-17T08:08:37;15.00;;;9.10;;
3249;SDS011;1637;42.020;23.992;2024-03-17T08:11:04;15.73;;;10.03;;
3249;SDS011;1637;42.020;23.992;2024-03-17T08:13:31;11.13;;;8.10;;
3249;SDS011;1637;42.020;23.992;2024-03-17T08:16:00;14.00;;;6.97;;
3249;SDS011;1637;42.020;23.992;2024-03-17T08:18:28;12.30;;;8.37;;
3249;SDS011;1637;42.020;23.992;2024-03-17T08:20:55;14.87;;;9.47;;
3249;SDS011;1637;42.020;23.992;2024-03-17T08:23:22;16.00;;;8.20;;
3249;SDS011;1637;42.020;23.992;2024-03-17T08:25:54;12.93;;;8.40;;
3249;SDS011;1637;42.020;23.992;2024-03-17T08:28:21;9.80;;;7.83;;
3249;SDS011;1637;42.020;23.992;2024-03-17T08:30:51;11.10;;;7.97;;
3249;SDS011;1637;42.020;23.992;2024-03-17T08:33:19;22.17;;;10.47;;
3249;SDS011;1637;42.020;23.992;2024-03-17T08:35:54;12.20;;;8.30;;
3249;SDS011;1637;42.020;23.992;2024-03-17T08:38:21;12.93;;;8.90;;
3249;SDS011;1637;42.020;23.992;2024-03-17T08:40:49;12.60;;;8.20;;
3249;SDS011;1637;42.020;23.992;2024-03-17T08:43:17;14.03;;;8.70;;
3249;SDS011;1637;42.020;23.992;2024-03-17T08:45:45;13.00;;;9.40;;
3249;SDS011;1637;42.020;23.992;2024-03-17T08:48:20;10.73;;;8.60;;
3249;SDS011;1637;42.020;23.992;2024-03-17T08:50:49;15.90;;;9.50;;
3249;SDS011;1637;42.020;23.992;2024-03-17T08:53:17;17.40;;;7.43;;
3249;SDS011;1637;42.020;23.992;2024-03-17T08:55:44;14.80;;;9.90;;
3249;SDS011;1637;42.020;23.992;2024-03-17T08:58:10;10.97;;;8.00;;
3249;SDS011;1637;42.020;23.992;2024-03-17T09:00:39;10.73;;;8.33;;
3249;SDS011;1637;42.020;23.992;2024-03-17T09:03:06;13.87;;;9.80;;
3249;SDS011;1637;42.020;23.992;2024-03-17T09:05:35;10.07;;;7.67;;
3249;SDS011;1637;42.020;23.992;2024-03-17T09:08:01;9.60;;;7.20;;
3249;SDS011;1637;42.020;23.992;2024-03-17T09:10:28;11.17;;;7.50;;
3249;SDS011;1637;42.020;23.992;2024-03-17T09:12:55;10.90;;;7.93;;
3249;SDS011;1637;42.020;23.992;2024-03-17T09:15:22;12.00;;;7.30;;
3249;SDS011;1637;42.020;23.992;2024-03-17T09:17:50;11.13;;;6.70;;
3249;SDS011;1637;42.020;23.992;2024-03-17T09:20:17;8.40;;;6.97;;
3249;SDS011;1637;42.020;23.992;2024-03-17T09:22:44;8.30;;;6.60;;
3249;SDS011;1637;42.020;23.992;2024-03-17T09:25:11;10.33;;;7.10;;
3249;SDS011;1637;42.020;23.992;2024-03-17T09:27:39;8.57;;;5.80;;
3249;SDS011;1637;42.020;23.992;2024-03-17T09:30:07;11.90;;;5.77;;
3249;SDS011;1637;42.020;23.992;2024-03-17T09:32:35;11.30;;;6.80;;
3249;SDS011;1637;42.020;23.992;2024-03-17T09:35:03;11.40;;;6.63;;
3249;SDS011;1637;42.020;23.992;2024-03-17T09:37:31;6.40;;;5.67;;
3249;SDS011;1637;42.020;23.992;2024-03-17T09:39:57;14.90;;;6.00;;
3249;SDS011;1637;42.020;23.992;2024-03-17T09:42:25;7.43;;;6.30;;
3249;SDS011;1637;42.020;23.992;2024-03-17T09:44:53;8.60;;;6.00;;
3249;SDS011;1637;42.020;23.992;2024-03-17T09:47:22;8.70;;;5.20;;
3249;SDS011;1637;42.020;23.992;2024-03-17T09:49:49;11.63;;;5.27;;
3249;SDS011;1637;42.020;23.992;2024-03-17T09:52:19;10.90;;;6.43;;
3249;SDS011;1637;42.020;23.992;2024-03-17T09:54:55;8.70;;;5.30;;
3249;SDS011;1637;42.020;23.992;2024-03-17T09:57:26;33.63;;;16.37;;
3249;SDS011;1637;42.020;23.992;2024-03-17T09:59:55;12.90;;;8.27;;
3249;SDS011;1637;42.020;23.992;2024-03-17T10:02:22;7.50;;;6.27;;
3249;SDS011;1637;42.020;23.992;2024-03-17T10:04:49;12.23;;;6.43;;
3249;SDS011;1637;42.020;23.992;2024-03-17T10:07:15;9.90;;;5.60;;
3249;SDS011;1637;42.020;23.992;2024-03-17T10:09:44;9.40;;;6.40;;
3249;SDS011;1637;42.020;23.992;2024-03-17T10:12:26;8.63;;;5.43;;
3249;SDS011;1637;42.020;23.992;2024-03-17T10:14:57;20.53;;;11.73;;
3249;SDS011;1637;42.020;23.992;2024-03-17T10:17:28;9.27;;;5.07;;
3249;SDS011;1637;42.020;23.992;2024-03-17T10:20:10;9.20;;;6.10;;
3249;SDS011;1637;42.020;23.992;2024-03-17T10:25:29;11.07;;;6.47;;
3249;SDS011;1637;42.020;23.992;2024-03-17T10:27:56;7.93;;;5.13;;
3249;SDS011;1637;42.020;23.992;2024-03-17T10:30:24;6.83;;;4.40;;
3249;SDS011;1637;42.020;23.992;2024-03-17T10:32:53;67.80;;;32.17;;
3249;SDS011;1637;42.020;23.992;2024-03-17T10:35:27;10.30;;;6.90;;
3249;SDS011;1637;42.020;23.992;2024-03-17T10:37:56;7.73;;;4.40;;
3249;SDS011;1637;42.020;23.992;2024-03-17T10:40:24;5.20;;;3.87;;
3249;SDS011;1637;42.020;23.992;2024-03-17T10:42:53;4.33;;;3.70;;
3249;SDS011;1637;42.020;23.992;2024-03-17T10:45:20;5.57;;;4.17;;
3249;SDS011;1637;42.020;23.992;2024-03-17T10:47:48;5.83;;;4.53;;
3249;SDS011;1637;42.020;23.992;2024-03-17T10:50:16;5.67;;;3.37;;
3249;SDS011;1637;42.020;23.992;2024-03-17T10:52:44;8.30;;;4.43;;
3249;SDS011;1637;42.020;23.992;2024-03-17T10:55:20;9.43;;;3.10;;
3249;SDS011;1637;42.020;23.992;2024-03-17T10:57:48;6.50;;;3.40;;
3249;SDS011;1637;42.020;23.992;2024-03-17T11:00:18;6.87;;;5.10;;
3249;SDS011;1637;42.020;23.992;2024-03-17T11:02:47;4.27;;;3.80;;
3249;SDS011;1637;42.020;23.992;2024-03-17T11:05:17;2.80;;;2.20;;
3249;SDS011;1637;42.020;23.992;2024-03-17T11:07:46;5.70;;;4.27;;
3249;SDS011;1637;42.020;23.992;2024-03-17T11:10:15;5.90;;;3.17;;
3249;SDS011;1637;42.020;23.992;2024-03-17T11:12:45;4.70;;;2.87;;
3249;SDS011;1637;42.020;23.992;2024-03-17T11:21:03;7.37;;;5.10;;
3249;SDS011;1637;42.020;23.992;2024-03-17T11:23:54;5.97;;;3.37;;
3249;SDS011;1637;42.020;23.992;2024-03-17T11:26:26;7.63;;;4.30;;
3249;SDS011;1637;42.020;23.992;2024-03-17T11:28:53;6.80;;;3.90;;
3249;SDS011;1637;42.020;23.992;2024-03-17T11:31:38;5.27;;;3.03;;
3249;SDS011;1637;42.020;23.992;2024-03-17T11:37:02;5.13;;;3.90;;
3249;SDS011;1637;42.020;23.992;2024-03-17T11:39:45;9.37;;;4.97;;
3249;SDS011;1637;42.020;23.992;2024-03-17T11:42:18;26.53;;;12.60;;
3249;SDS011;1637;42.020;23.992;2024-03-17T11:44:54;8.00;;;5.40;;
3249;SDS011;1637;42.020;23.992;2024-03-17T11:47:24;4.03;;;2.80;;
3249;SDS011;1637;42.020;23.992;2024-03-17T11:49:58;5.60;;;4.00;;
3249;SDS011;1637;42.020;23.992;2024-03-17T11:52:30;12.07;;;5.70;;
3249;SDS011;1637;42.020;23.992;2024-03-17T11:54:56;9.47;;;5.23;;
3249;SDS011;1637;42.020;23.992;2024-03-17T11:57:24;3.43;;;2.30;;
3249;SDS011;1637;42.020;23.992;2024-03-17T11:59:51;12.33;;;7.00;;
3249;SDS011;1637;42.020;23.992;2024-03-17T12:02:19;3.67;;;2.63;;
3249;SDS011;1637;42.020;23.992;2024-03-17T12:04:48;6.37;;;3.10;;
3249;SDS011;1637;42.020;23.992;2024-03-17T12:07:16;3.20;;;1.97;;
3249;SDS011;1637;42.020;23.992;2024-03-17T12:09:43;4.33;;;3.23;;
3249;SDS011;1637;42.020;23.992;2024-03-17T12:12:13;5.03;;;3.10;;
3249;SDS011;1637;42.020;23.992;2024-03-17T12:14:42;4.73;;;3.70;;
3249;SDS011;1637;42.020;23.992;2024-03-17T12:17:10;3.93;;;3.00;;
3249;SDS011;1637;42.020;23.992;2024-03-17T12:19:36;9.80;;;3.80;;
3249;SDS011;1637;42.020;23.992;2024-03-17T12:22:06;5.73;;;3.00;;
3249;SDS011;1637;42.020;23.992;2024-03-17T12:24:32;4.50;;;3.10;;
3249;SDS011;1637;42.020;23.992;2024-03-17T12:27:00;5.77;;;3.20;;
3249;SDS011;1637;42.020;23.992;2024-03-17T12:29:28;3.87;;;2.60;;
3249;SDS011;1637;42.020;23.992;2024-03-17T12:31:58;8.90;;;2.97;;
3249;SDS011;1637;42.020;23.992;2024-03-17T12:34:27;4.07;;;2.60;;
3249;SDS011;1637;42.020;23.992;2024-03-17T12:36:55;2.77;;;2.10;;
3249;SDS011;1637;42.020;23.992;2024-03-17T12:39:25;8.20;;;2.10;;
3249;SDS011;1637;42.020;23.992;2024-03-17T12:42:02;5.80;;;3.57;;
3249;SDS011;1637;42.020;23.992;2024-03-17T12:44:33;7.63;;;3.27;;
3249;SDS011;1637;42.020;23.992;2024-03-17T12:47:02;5.47;;;2.80;;
3249;SDS011;1637;42.020;23.992;2024-03-17T12:49:31;6.93;;;3.47;;
3249;SDS011;1637;42.020;23.992;2024-03-17T12:51:59;8.93;;;5.23;;
3249;SDS011;1637;42.020;23.992;2024-03-17T12:54:27;21.40;;;10.27;;
3249;SDS011;1637;42.020;23.992;2024-03-17T12:57:05;19.40;;;8.27;;
3249;SDS011;1637;42.020;23.992;2024-03-17T12:59:50;8.60;;;4.33;;
3249;SDS011;1637;42.020;23.992;2024-03-17T13:02:40;9.40;;;3.60;;
3249;SDS011;1637;42.020;23.992;2024-03-17T13:05:11;5.27;;;4.00;;
3249;SDS011;1637;42.020;23.992;2024-03-17T13:07:41;3.80;;;2.47;;
3249;SDS011;1637;42.020;23.992;2024-03-17T13:10:11;6.97;;;4.60;;
3249;SDS011;1637;42.020;23.992;2024-03-17T13:12:38;12.40;;;6.10;;
3249;SDS011;1637;42.020;23.992;2024-03-17T13:15:05;9.70;;;5.40;;
3249;SDS011;1637;42.020;23.992;2024-03-17T13:17:34;17.10;;;9.43;;
3249;SDS011;1637;42.020;23.992;2024-03-17T13:20:01;10.80;;;5.47;;
3249;SDS011;1637;42.020;23.992;2024-03-17T13:22:33;4.43;;;3.33;;
3249;SDS011;1637;42.020;23.992;2024-03-17T13:25:01;14.20;;;5.50;;
3249;SDS011;1637;42.020;23.992;2024-03-17T13:27:32;33.90;;;17.30;;
3249;SDS011;1637;42.020;23.992;2024-03-17T13:29:59;25.70;;;13.80;;
3249;SDS011;1637;42.020;23.992;2024-03-17T13:32:26;14.03;;;7.77;;
3249;SDS011;1637;42.020;23.992;2024-03-17T13:34:52;7.00;;;5.00;;
3249;SDS011;1637;42.020;23.992;2024-03-17T13:37:19;21.90;;;9.57;;
3249;SDS011;1637;42.020;23.992;2024-03-17T13:39:47;16.10;;;9.40;;
3249;SDS011;1637;42.020;23.992;2024-03-17T13:42:14;10.93;;;6.27;;
3249;SDS011;1637;42.020;23.992;2024-03-17T13:44:42;12.03;;;8.93;;
3249;SDS011;1637;42.020;23.992;2024-03-17T13:47:09;10.90;;;6.10;;
3249;SDS011;1637;42.020;23.992;2024-03-17T13:49:36;10.30;;;6.07;;
3249;SDS011;1637;42.020;23.992;2024-03-17T13:52:03;26.83;;;10.40;;
3249;SDS011;1637;42.020;23.992;2024-03-17T13:54:30;7.27;;;4.60;;
3249;SDS011;1637;42.020;23.992;2024-03-17T13:56:58;10.10;;;5.90;;
3249;SDS011;1637;42.020;23.992;2024-03-17T13:59:27;7.43;;;4.43;;
3249;SDS011;1637;42.020;23.992;2024-03-17T14:01:55;13.27;;;7.10;;
3249;SDS011;1637;42.020;23.992;2024-03-17T14:04:22;9.67;;;5.67;;
3249;SDS011;1637;42.020;23.992;2024-03-17T14:06:49;19.77;;;12.27;;
3249;SDS011;1637;42.020;23.992;2024-03-17T14:09:16;19.23;;;10.60;;
3249;SDS011;1637;42.020;23.992;2024-03-17T14:11:44;9.13;;;6.10;;
3249;SDS011;1637;42.020;23.992;2024-03-17T14:14:11;8.40;;;5.03;;
3249;SDS011;1637;42.020;23.992;2024-03-17T14:16:38;5.27;;;3.20;;
3249;SDS011;1637;42.020;23.992;2024-03-17T14:19:07;4.93;;;2.57;;
3249;SDS011;1637;42.020;23.992;2024-03-17T14:21:33;7.70;;;3.67;;
3249;SDS011;1637;42.020;23.992;2024-03-17T14:24:01;3.73;;;2.90;;
3249;SDS011;1637;42.020;23.992;2024-03-17T14:26:32;4.00;;;2.20;;
3249;SDS011;1637;42.020;23.992;2024-03-17T14:28:59;4.27;;;2.80;;
3249;SDS011;1637;42.020;23.992;2024-03-17T14:31:26;8.50;;;4.57;;
3249;SDS011;1637;42.020;23.992;2024-03-17T14:33:56;22.53;;;8.17;;
3249;SDS011;1637;42.020;23.992;2024-03-17T14:36:25;23.57;;;9.83;;
3249;SDS011;1637;42.020;23.992;2024-03-17T14:38:54;10.43;;;5.83;;
3249;SDS011;1637;42.020;23.992;2024-03-17T14:41:21;10.57;;;7.20;;
3249;SDS011;1637;42.020;23.992;2024-03-17T14:43:48;6.50;;;4.60;;
3249;SDS011;1637;42.020;23.992;2024-03-17T14:46:14;11.73;;;7.00;;
3249;SDS011;1637;42.020;23.992;2024-03-17T14:48:42;6.83;;;4.50;;
3249;SDS011;1637;42.020;23.992;2024-03-17T14:51:09;11.00;;;5.73;;
3249;SDS011;1637;42.020;23.992;2024-03-17T14:53:38;7.10;;;4.13;;
3249;SDS011;1637;42.020;23.992;2024-03-17T14:56:13;6.30;;;3.40;;
3249;SDS011;1637;42.020;23.992;2024-03-17T14:58:40;6.23;;;3.77;;
3249;SDS011;1637;42.020;23.992;2024-03-17T15:01:07;9.20;;;5.80;;
3249;SDS011;1637;42.020;23.992;2024-03-17T15:03:34;15.30;;;6.57;;